sensor_id;sensor_type;location;lat;lon;timestamp;P1;durP1;ratioP1;P2;durP2;ratioP2
33912;SDS011;20200;52.084;5.224;2022-12-18T00:02:36;234.7;;;105.5;;
33912;SDS011;20200;52.084;5.224;2022-12-18T00:04:14;226.8;;;101.6;;
33912;SDS011;20200;52.084;5.224;2022-12-18T00:05:58;224.4;;;100.8;;
33912;SDS011;20200;52.084;5.224;2022-12-18T00:07:35;212.1;;;100.5;;
33912;SDS011;20200;52.084;5.224;2022-12-18T00:10:48;222.2;;;102.2;;
33912;SDS011;20200;52.084;5.224;2022-12-18T00:12:24;241.4;;;105.7;;
33912;SDS011;20200;52.084;5.224;2022-12-18T00:15:37;219.5;;;105.6;;
33912;SDS011;20200;52.084;5.224;2022-12-18T00:17:14;207.8;;;100.1;;
33912;SDS011;20200;52.084;5.224;2022-12-18T00:18:51;188.3;;;92.6;;
33912;SDS011;20200;52.084;5.224;2022-12-18T00:20:31;215.9;;;98.6;;
33912;SDS011;20200;52.084;5.224;2022-12-18T00:22:12;201.7;;;95.9;;
33912;SDS011;20200;52.084;5.224;2022-12-18T00:25:26;204.3;;;96.1;;
33912;SDS011;20200;52.084;5.224;2022-12-18T00:27:03;210.0;;;95.7;;
33912;SDS011;20200;52.084;5.224;2022-12-18T00:28:39;249.3;;;97.2;;
33912;SDS011;20200;52.084;5.224;2022-12-18T00:31:52;206.2;;;96.8;;
33912;SDS011;20200;52.084;5.224;2022-12-18T00:33:28;203.8;;;96.2;;
33912;SDS011;20200;52.084;5.224;2022-12-18T00:35:06;168.0;;;88.7;;
33912;SDS011;20200;52.084;5.224;2022-12-18T00:36:43;206.2;;;97.4;;
33912;SDS011;20200;52.084;5.224;2022-12-18T00:39:55;211.4;;;98.1;;
33912;SDS011;20200;52.084;5.224;2022-12-18T00:41:31;205.8;;;97.5;;
33912;SDS011;20200;52.084;5.224;2022-12-18T00:43:08;185.6;;;89.8;;
33912;SDS011;20200;52.084;5.224;2022-12-18T00:46:21;217.8;;;102.2;;
33912;SDS011;20200;52.084;5.224;2022-12-18T00:47:57;191.7;;;90.9;;
33912;SDS011;20200;52.084;5.224;2022-12-18T00:49:33;323.0;;;107.7;;
33912;SDS011;20200;52.084;5.224;2022-12-18T00:52:45;218.7;;;102.4;;
33912;SDS011;20200;52.084;5.224;2022-12-18T00:54:22;199.9;;;99.6;;
33912;SDS011;20200;52.084;5.224;2022-12-18T00:55:59;204.3;;;98.6;;
33912;SDS011;20200;52.084;5.224;2022-12-18T00:57:35;218.3;;;104.0;;
33912;SDS011;20200;52.084;5.224;2022-12-18T01:00:47;186.0;;;96.8;;
33912;SDS011;20200;52.084;5.224;2022-12-18T01:02:24;200.6;;;102.5;;
33912;SDS011;20200;52.084;5.224;2022-12-18T01:04:00;203.9;;;101.2;;
33912;SDS011;20200;52.084;5.224;2022-12-18T01:07:15;194.9;;;96.8;;
33912;SDS011;20200;52.084;5.224;2022-12-18T01:08:51;197.6;;;97.9;;
33912;SDS011;20200;52.084;5.224;2022-12-18T01:10:27;195.9;;;99.2;;
33912;SDS011;20200;52.084;5.224;2022-12-18T01:13:41;186.4;;;95.0;;
33912;SDS011;20200;52.084;5.224;2022-12-18T01:15:19;222.6;;;106.1;;
33912;SDS011;20200;52.084;5.224;2022-12-18T01:16:55;216.6;;;104.4;;
33912;SDS011;20200;52.084;5.224;2022-12-18T01:18:31;194.5;;;97.7;;
33912;SDS011;20200;52.084;5.224;2022-12-18T01:21:47;217.0;;;103.7;;
33912;SDS011;20200;52.084;5.224;2022-12-18T01:23:23;229.2;;;108.3;;
33912;SDS011;20200;52.084;5.224;2022-12-18T01:25:02;223.8;;;107.6;;
33912;SDS011;20200;52.084;5.224;2022-12-18T01:28:16;237.0;;;105.7;;
33912;SDS011;20200;52.084;5.224;2022-12-18T01:29:53;209.0;;;103.5;;
33912;SDS011;20200;52.084;5.224;2022-12-18T01:31:31;230.3;;;108.2;;
33912;SDS011;20200;52.084;5.224;2022-12-18T01:33:09;234.2;;;108.7;;
33912;SDS011;20200;52.084;5.224;2022-12-18T01:36:22;204.0;;;100.5;;
33912;SDS011;20200;52.084;5.224;2022-12-18T01:38:00;227.0;;;108.6;;
33912;SDS011;20200;52.084;5.224;2022-12-18T01:39:37;223.3;;;106.1;;
33912;SDS011;20200;52.084;5.224;2022-12-18T01:42:55;246.8;;;110.9;;
33912;SDS011;20200;52.084;5.224;2022-12-18T01:45:00;231.3;;;108.7;;
33912;SDS011;20200;52.084;5.224;2022-12-18T01:46:56;235.4;;;110.8;;
33912;SDS011;20200;52.084;5.224;2022-12-18T01:48:33;200.1;;;98.8;;
33912;SDS011;20200;52.084;5.224;2022-12-18T01:50:10;213.5;;;102.0;;
33912;SDS011;20200;52.084;5.224;2022-12-18T01:53:27;214.8;;;105.6;;
33912;SDS011;20200;52.084;5.224;2022-12-18T01:55:04;212.6;;;101.3;;
33912;SDS011;20200;52.084;5.224;2022-12-18T01:56:42;205.6;;;100.1;;
33912;SDS011;20200;52.084;5.224;2022-12-18T01:58:18;203.7;;;99.6;;
33912;SDS011;20200;52.084;5.224;2022-12-18T02:01:43;186.6;;;94.1;;
33912;SDS011;20200;52.084;5.224;2022-12-18T02:03:19;182.6;;;92.6;;
33912;SDS011;20200;52.084;5.224;2022-12-18T02:04:56;184.8;;;94.2;;
33912;SDS011;20200;52.084;5.224;2022-12-18T02:08:16;202.9;;;99.1;;
33912;SDS011;20200;52.084;5.224;2022-12-18T02:10:02;194.4;;;97.7;;
33912;SDS011;20200;52.084;5.224;2022-12-18T02:11:47;195.1;;;96.0;;
33912;SDS011;20200;52.084;5.224;2022-12-18T02:13:32;177.9;;;91.3;;
33912;SDS011;20200;52.084;5.224;2022-12-18T02:15:19;188.8;;;94.5;;
33912;SDS011;20200;52.084;5.224;2022-12-18T02:17:03;180.2;;;94.2;;
33912;SDS011;20200;52.084;5.224;2022-12-18T02:20:31;181.8;;;94.9;;
33912;SDS011;20200;52.084;5.224;2022-12-18T02:22:16;176.9;;;90.7;;
33912;SDS011;20200;52.084;5.224;2022-12-18T02:24:10;154.4;;;84.5;;
33912;SDS011;20200;52.084;5.224;2022-12-18T02:26:02;169.8;;;88.6;;
33912;SDS011;20200;52.084;5.224;2022-12-18T02:27:47;166.1;;;88.0;;
33912;SDS011;20200;52.084;5.224;2022-12-18T02:31:09;170.0;;;90.5;;
33912;SDS011;20200;52.084;5.224;2022-12-18T02:32:52;165.8;;;90.6;;
33912;SDS011;20200;52.084;5.224;2022-12-18T02:34:31;159.1;;;86.1;;
33912;SDS011;20200;52.084;5.224;2022-12-18T02:36:13;149.9;;;83.7;;
33912;SDS011;20200;52.084;5.224;2022-12-18T02:39:29;160.4;;;87.4;;
33912;SDS011;20200;52.084;5.224;2022-12-18T02:41:08;156.5;;;84.3;;
33912;SDS011;20200;52.084;5.224;2022-12-18T02:42:45;169.5;;;86.4;;
33912;SDS011;20200;52.084;5.224;2022-12-18T02:44:22;160.81;;;84.6;;
33912;SDS011;20200;52.084;5.224;2022-12-18T02:47:56;154.21;;;86.0;;
33912;SDS011;20200;52.084;5.224;2022-12-18T02:49:34;155.31;;;86.4;;
33912;SDS011;20200;52.084;5.224;2022-12-18T02:51:21;153.0;;;81.61;;
33912;SDS011;20200;52.084;5.224;2022-12-18T02:53:07;148.0;;;81.0;;
33912;SDS011;20200;52.084;5.224;2022-12-18T02:54:55;153.1;;;83.4;;
33912;SDS011;20200;52.084;5.224;2022-12-18T02:58:26;143.31;;;80.3;;
33912;SDS011;20200;52.084;5.224;2022-12-18T03:00:10;152.71;;;83.2;;
33912;SDS011;20200;52.084;5.224;2022-12-18T03:01:51;147.1;;;82.4;;
33912;SDS011;20200;52.084;5.224;2022-12-18T03:03:35;148.0;;;84.8;;
33912;SDS011;20200;52.084;5.224;2022-12-18T03:05:16;148.5;;;82.3;;
33912;SDS011;20200;52.084;5.224;2022-12-18T03:08:42;151.21;;;82.4;;
33912;SDS011;20200;52.084;5.224;2022-12-18T03:10:24;143.9;;;83.1;;
33912;SDS011;20200;52.084;5.224;2022-12-18T03:12:06;141.0;;;81.3;;
33912;SDS011;20200;52.084;5.224;2022-12-18T03:13:51;142.1;;;81.0;;
33912;SDS011;20200;52.084;5.224;2022-12-18T03:17:14;135.1;;;80.11;;
33912;SDS011;20200;52.084;5.224;2022-12-18T03:18:56;152.5;;;83.8;;
33912;SDS011;20200;52.084;5.224;2022-12-18T03:20:37;131.1;;;77.0;;
33912;SDS011;20200;52.084;5.224;2022-12-18T03:22:19;138.0;;;81.5;;
33912;SDS011;20200;52.084;5.224;2022-12-18T03:23:59;140.5;;;78.41;;
33912;SDS011;20200;52.084;5.224;2022-12-18T03:27:18;146.21;;;83.8;;
33912;SDS011;20200;52.084;5.224;2022-12-18T03:28:59;143.5;;;78.8;;
33912;SDS011;20200;52.084;5.224;2022-12-18T03:30:43;149.0;;;84.2;;
33912;SDS011;20200;52.084;5.224;2022-12-18T03:32:23;138.0;;;80.7;;
33912;SDS011;20200;52.084;5.224;2022-12-18T03:35:48;128.9;;;77.2;;
33912;SDS011;20200;52.084;5.224;2022-12-18T03:37:25;141.6;;;79.41;;
33912;SDS011;20200;52.084;5.224;2022-12-18T03:39:01;145.9;;;84.6;;
33912;SDS011;20200;52.084;5.224;2022-12-18T03:42:37;134.4;;;79.3;;
33912;SDS011;20200;52.084;5.224;2022-12-18T03:44:23;145.9;;;84.9;;
33912;SDS011;20200;52.084;5.224;2022-12-18T03:46:09;148.4;;;82.0;;
33912;SDS011;20200;52.084;5.224;2022-12-18T03:47:53;136.5;;;80.91;;
33912;SDS011;20200;52.084;5.224;2022-12-18T03:49:38;147.0;;;83.8;;
33912;SDS011;20200;52.084;5.224;2022-12-18T03:51:23;148.71;;;82.3;;
33912;SDS011;20200;52.084;5.224;2022-12-18T03:54:55;147.4;;;83.1;;
33912;SDS011;20200;52.084;5.224;2022-12-18T03:56:35;142.9;;;83.3;;
33912;SDS011;20200;52.084;5.224;2022-12-18T03:58:17;128.4;;;78.41;;
33912;SDS011;20200;52.084;5.224;2022-12-18T03:59:56;132.2;;;76.41;;
33912;SDS011;20200;52.084;5.224;2022-12-18T04:01:38;136.5;;;78.11;;
33912;SDS011;20200;52.084;5.224;2022-12-18T04:04:57;126.5;;;73.91;;
33912;SDS011;20200;52.084;5.224;2022-12-18T04:06:38;135.5;;;78.2;;
33912;SDS011;20200;52.084;5.224;2022-12-18T04:08:16;123.2;;;73.41;;
33912;SDS011;20200;52.084;5.224;2022-12-18T04:11:32;129.5;;;75.3;;
33912;SDS011;20200;52.084;5.224;2022-12-18T04:13:08;124.2;;;75.0;;
33912;SDS011;20200;52.084;5.224;2022-12-18T04:14:44;122.7;;;73.7;;
33912;SDS011;20200;52.084;5.224;2022-12-18T04:16:21;126.2;;;74.8;;
33912;SDS011;20200;52.084;5.224;2022-12-18T04:19:33;113.1;;;68.41;;
33912;SDS011;20200;52.084;5.224;2022-12-18T04:21:09;111.9;;;69.3;;
33912;SDS011;20200;52.084;5.224;2022-12-18T04:22:47;114.1;;;70.5;;
33912;SDS011;20200;52.084;5.224;2022-12-18T04:26:00;117.7;;;68.1;;
33912;SDS011;20200;52.084;5.224;2022-12-18T04:27:36;116.0;;;69.91;;
33912;SDS011;20200;52.084;5.224;2022-12-18T04:29:12;108.0;;;64.41;;
33912;SDS011;20200;52.084;5.224;2022-12-18T04:32:24;112.1;;;67.41;;
33912;SDS011;20200;52.084;5.224;2022-12-18T04:34:01;106.1;;;64.5;;
33912;SDS011;20200;52.084;5.224;2022-12-18T04:35:37;107.2;;;65.2;;
33912;SDS011;20200;52.084;5.224;2022-12-18T04:37:13;110.4;;;65.5;;
33912;SDS011;20200;52.084;5.224;2022-12-18T04:40:25;95.0;;;59.7;;
33912;SDS011;20200;52.084;5.224;2022-12-18T04:42:01;101.3;;;61.1;;
33912;SDS011;20200;52.084;5.224;2022-12-18T04:43:38;104.8;;;62.9;;
33912;SDS011;20200;52.084;5.224;2022-12-18T04:46:50;95.5;;;59.4;;
33912;SDS011;20200;52.084;5.224;2022-12-18T04:48:26;96.9;;;59.6;;
33912;SDS011;20200;52.084;5.224;2022-12-18T04:50:03;93.8;;;59.0;;
33912;SDS011;20200;52.084;5.224;2022-12-18T04:53:16;93.3;;;58.2;;
33912;SDS011;20200;52.084;5.224;2022-12-18T04:54:52;90.5;;;55.8;;
33912;SDS011;20200;52.084;5.224;2022-12-18T04:56:30;89.0;;;56.5;;
33912;SDS011;20200;52.084;5.224;2022-12-18T04:58:07;88.2;;;57.2;;
33912;SDS011;20200;52.084;5.224;2022-12-18T05:01:19;85.3;;;55.9;;
33912;SDS011;20200;52.084;5.224;2022-12-18T05:02:55;85.2;;;54.3;;
33912;SDS011;20200;52.084;5.224;2022-12-18T05:04:31;87.9;;;55.0;;
33912;SDS011;20200;52.084;5.224;2022-12-18T05:07:45;87.1;;;55.1;;
33912;SDS011;20200;52.084;5.224;2022-12-18T05:09:21;79.5;;;50.5;;
33912;SDS011;20200;52.084;5.224;2022-12-18T05:10:59;83.8;;;53.8;;
33912;SDS011;20200;52.084;5.224;2022-12-18T05:14:13;80.0;;;52.4;;
33912;SDS011;20200;52.084;5.224;2022-12-18T05:15:51;80.11;;;52.1;;
33912;SDS011;20200;52.084;5.224;2022-12-18T05:17:28;80.2;;;52.1;;
33912;SDS011;20200;52.084;5.224;2022-12-18T05:19:04;81.5;;;52.9;;
33912;SDS011;20200;52.084;5.224;2022-12-18T05:22:17;81.2;;;52.8;;
33912;SDS011;20200;52.084;5.224;2022-12-18T05:23:53;80.2;;;51.8;;
33912;SDS011;20200;52.084;5.224;2022-12-18T05:25:29;79.11;;;50.6;;
33912;SDS011;20200;52.084;5.224;2022-12-18T05:28:41;78.11;;;50.0;;
33912;SDS011;20200;52.084;5.224;2022-12-18T05:30:18;71.3;;;46.4;;
33912;SDS011;20200;52.084;5.224;2022-12-18T05:31:54;71.8;;;48.8;;
33912;SDS011;20200;52.084;5.224;2022-12-18T05:35:10;76.5;;;49.4;;
33912;SDS011;20200;52.084;5.224;2022-12-18T05:36:47;75.7;;;48.7;;
33912;SDS011;20200;52.084;5.224;2022-12-18T05:38:24;67.2;;;46.0;;
33912;SDS011;20200;52.084;5.224;2022-12-18T05:40:02;75.41;;;49.8;;
33912;SDS011;20200;52.084;5.224;2022-12-18T05:43:16;69.5;;;47.4;;
33912;SDS011;20200;52.084;5.224;2022-12-18T05:44:53;70.8;;;46.5;;
33912;SDS011;20200;52.084;5.224;2022-12-18T05:46:29;68.5;;;46.0;;
33912;SDS011;20200;52.084;5.224;2022-12-18T05:49:43;68.2;;;46.4;;
33912;SDS011;20200;52.084;5.224;2022-12-18T05:51:20;65.0;;;43.9;;
33912;SDS011;20200;52.084;5.224;2022-12-18T05:52:57;65.2;;;44.2;;
33912;SDS011;20200;52.084;5.224;2022-12-18T05:56:11;71.11;;;46.7;;
33912;SDS011;20200;52.084;5.224;2022-12-18T05:57:50;68.0;;;45.3;;
33912;SDS011;20200;52.084;5.224;2022-12-18T05:59:26;68.91;;;45.4;;
33912;SDS011;20200;52.084;5.224;2022-12-18T06:01:06;67.6;;;46.4;;
33912;SDS011;20200;52.084;5.224;2022-12-18T06:04:23;63.1;;;44.0;;
33912;SDS011;20200;52.084;5.224;2022-12-18T06:05:59;64.3;;;44.4;;
33912;SDS011;20200;52.084;5.224;2022-12-18T06:07:35;64.6;;;45.4;;
33912;SDS011;20200;52.084;5.224;2022-12-18T06:10:49;68.61;;;45.6;;
33912;SDS011;20200;52.084;5.224;2022-12-18T06:12:27;66.3;;;45.0;;
33912;SDS011;20200;52.084;5.224;2022-12-18T06:14:03;60.9;;;41.6;;
33912;SDS011;20200;52.084;5.224;2022-12-18T06:15:41;64.7;;;42.9;;
33912;SDS011;20200;52.084;5.224;2022-12-18T06:18:55;61.3;;;41.3;;
33912;SDS011;20200;52.084;5.224;2022-12-18T06:20:31;61.0;;;42.4;;
33912;SDS011;20200;52.084;5.224;2022-12-18T06:22:08;61.8;;;41.0;;
33912;SDS011;20200;52.084;5.224;2022-12-18T06:25:20;57.6;;;40.6;;
33912;SDS011;20200;52.084;5.224;2022-12-18T06:26:56;58.9;;;41.4;;
33912;SDS011;20200;52.084;5.224;2022-12-18T06:28:32;58.8;;;40.21;;
33912;SDS011;20200;52.084;5.224;2022-12-18T06:30:09;58.8;;;40.31;;
33912;SDS011;20200;52.084;5.224;2022-12-18T06:33:25;58.9;;;41.0;;
33912;SDS011;20200;52.084;5.224;2022-12-18T06:35:02;59.7;;;41.7;;
33912;SDS011;20200;52.084;5.224;2022-12-18T06:36:39;56.0;;;39.4;;
33912;SDS011;20200;52.084;5.224;2022-12-18T06:39:52;53.9;;;38.9;;
33912;SDS011;20200;52.084;5.224;2022-12-18T06:41:28;54.0;;;37.9;;
33912;SDS011;20200;52.084;5.224;2022-12-18T06:43:04;61.4;;;41.9;;
33912;SDS011;20200;52.084;5.224;2022-12-18T06:46:18;56.7;;;39.9;;
33912;SDS011;20200;52.084;5.224;2022-12-18T06:47:55;60.0;;;41.7;;
33912;SDS011;20200;52.084;5.224;2022-12-18T06:49:31;56.9;;;39.5;;
33912;SDS011;20200;52.084;5.224;2022-12-18T06:51:07;56.5;;;40.5;;
33912;SDS011;20200;52.084;5.224;2022-12-18T06:54:20;58.1;;;40.6;;
33912;SDS011;20200;52.084;5.224;2022-12-18T06:55:59;57.7;;;41.2;;
33912;SDS011;20200;52.084;5.224;2022-12-18T06:57:36;54.5;;;40.0;;
33912;SDS011;20200;52.084;5.224;2022-12-18T07:00:50;58.7;;;42.1;;
33912;SDS011;20200;52.084;5.224;2022-12-18T07:02:26;56.9;;;40.6;;
33912;SDS011;20200;52.084;5.224;2022-12-18T07:04:03;58.0;;;41.4;;
33912;SDS011;20200;52.084;5.224;2022-12-18T07:07:16;60.5;;;40.5;;
33912;SDS011;20200;52.084;5.224;2022-12-18T07:08:53;55.0;;;38.6;;
33912;SDS011;20200;52.084;5.224;2022-12-18T07:10:30;56.3;;;40.9;;
33912;SDS011;20200;52.084;5.224;2022-12-18T07:12:07;56.1;;;41.4;;
33912;SDS011;20200;52.084;5.224;2022-12-18T07:15:20;57.5;;;40.71;;
33912;SDS011;20200;52.084;5.224;2022-12-18T07:16:56;57.9;;;41.1;;
33912;SDS011;20200;52.084;5.224;2022-12-18T07:18:32;55.9;;;40.6;;
33912;SDS011;20200;52.084;5.224;2022-12-18T07:21:46;60.1;;;41.9;;
33912;SDS011;20200;52.084;5.224;2022-12-18T07:23:22;55.5;;;39.6;;
33912;SDS011;20200;52.084;5.224;2022-12-18T07:24:58;52.7;;;37.5;;
33912;SDS011;20200;52.084;5.224;2022-12-18T07:28:11;52.4;;;37.9;;
33912;SDS011;20200;52.084;5.224;2022-12-18T07:29:47;55.4;;;41.0;;
33912;SDS011;20200;52.084;5.224;2022-12-18T07:31:23;54.9;;;39.6;;
33912;SDS011;20200;52.084;5.224;2022-12-18T07:33:00;52.8;;;37.5;;
33912;SDS011;20200;52.084;5.224;2022-12-18T07:36:13;55.3;;;39.81;;
33912;SDS011;20200;52.084;5.224;2022-12-18T07:37:50;52.3;;;37.4;;
33912;SDS011;20200;52.084;5.224;2022-12-18T07:39:26;54.3;;;38.71;;
33912;SDS011;20200;52.084;5.224;2022-12-18T07:42:40;51.8;;;37.31;;
33912;SDS011;20200;52.084;5.224;2022-12-18T07:44:17;51.3;;;38.21;;
33912;SDS011;20200;52.084;5.224;2022-12-18T07:45:54;54.7;;;39.31;;
33912;SDS011;20200;52.084;5.224;2022-12-18T07:49:10;52.0;;;37.5;;
33912;SDS011;20200;52.084;5.224;2022-12-18T07:50:46;52.5;;;37.9;;
33912;SDS011;20200;52.084;5.224;2022-12-18T07:52:22;50.5;;;36.31;;
33912;SDS011;20200;52.084;5.224;2022-12-18T07:53:59;52.9;;;38.31;;
33912;SDS011;20200;52.084;5.224;2022-12-18T07:57:11;54.5;;;39.31;;
33912;SDS011;20200;52.084;5.224;2022-12-18T07:58:47;50.4;;;37.71;;
33912;SDS011;20200;52.084;5.224;2022-12-18T08:00:24;52.0;;;38.21;;
33912;SDS011;20200;52.084;5.224;2022-12-18T08:03:38;56.0;;;40.21;;
33912;SDS011;20200;52.084;5.224;2022-12-18T08:05:14;49.6;;;36.81;;
33912;SDS011;20200;52.084;5.224;2022-12-18T08:06:51;54.8;;;39.21;;
33912;SDS011;20200;52.084;5.224;2022-12-18T08:10:04;51.4;;;39.1;;
33912;SDS011;20200;52.084;5.224;2022-12-18T08:11:41;51.0;;;38.0;;
33912;SDS011;20200;52.084;5.224;2022-12-18T08:13:18;50.7;;;38.1;;
33912;SDS011;20200;52.084;5.224;2022-12-18T08:14:54;50.8;;;37.1;;
33912;SDS011;20200;52.084;5.224;2022-12-18T08:18:07;52.5;;;38.4;;
33912;SDS011;20200;52.084;5.224;2022-12-18T08:19:43;49.3;;;37.9;;
33912;SDS011;20200;52.084;5.224;2022-12-18T08:21:20;50.2;;;37.31;;
33912;SDS011;20200;52.084;5.224;2022-12-18T08:24:34;50.1;;;37.5;;
33912;SDS011;20200;52.084;5.224;2022-12-18T08:26:10;51.7;;;37.21;;
33912;SDS011;20200;52.084;5.224;2022-12-18T08:27:47;50.0;;;37.0;;
33912;SDS011;20200;52.084;5.224;2022-12-18T08:29:23;51.5;;;37.31;;
33912;SDS011;20200;52.084;5.224;2022-12-18T08:32:36;48.8;;;35.6;;
33912;SDS011;20200;52.084;5.224;2022-12-18T08:34:11;51.5;;;37.71;;
33912;SDS011;20200;52.084;5.224;2022-12-18T08:35:47;52.0;;;37.4;;
33912;SDS011;20200;52.084;5.224;2022-12-18T08:39:00;50.6;;;35.71;;
33912;SDS011;20200;52.084;5.224;2022-12-18T08:40:36;48.5;;;35.4;;
33912;SDS011;20200;52.084;5.224;2022-12-18T08:43:48;50.2;;;36.21;;
33912;SDS011;20200;52.084;5.224;2022-12-18T08:45:25;48.5;;;35.9;;
33912;SDS011;20200;52.084;5.224;2022-12-18T08:47:01;49.2;;;35.9;;
33912;SDS011;20200;52.084;5.224;2022-12-18T08:48:37;47.2;;;35.1;;
33912;SDS011;20200;52.084;5.224;2022-12-18T08:51:53;50.0;;;35.6;;
33912;SDS011;20200;52.084;5.224;2022-12-18T08:53:30;49.8;;;35.71;;
33912;SDS011;20200;52.084;5.224;2022-12-18T08:55:07;48.3;;;34.31;;
33912;SDS011;20200;52.084;5.224;2022-12-18T08:56:44;46.8;;;34.5;;
33912;SDS011;20200;52.084;5.224;2022-12-18T08:59:57;50.8;;;35.1;;
33912;SDS011;20200;52.084;5.224;2022-12-18T09:01:33;47.2;;;35.0;;
33912;SDS011;20200;52.084;5.224;2022-12-18T09:03:10;47.3;;;34.0;;
33912;SDS011;20200;52.084;5.224;2022-12-18T09:06:24;48.1;;;35.21;;
33912;SDS011;20200;52.084;5.224;2022-12-18T09:08:00;49.3;;;35.5;;
33912;SDS011;20200;52.084;5.224;2022-12-18T09:09:36;45.6;;;33.6;;
33912;SDS011;20200;52.084;5.224;2022-12-18T09:12:53;48.5;;;34.81;;
33912;SDS011;20200;52.084;5.224;2022-12-18T09:14:30;43.5;;;33.71;;
33912;SDS011;20200;52.084;5.224;2022-12-18T09:16:06;47.6;;;34.1;;
33912;SDS011;20200;52.084;5.224;2022-12-18T09:17:43;44.5;;;33.0;;
33912;SDS011;20200;52.084;5.224;2022-12-18T09:20:55;46.5;;;34.21;;
33912;SDS011;20200;52.084;5.224;2022-12-18T09:22:31;45.5;;;34.4;;
33912;SDS011;20200;52.084;5.224;2022-12-18T09:24:08;47.8;;;34.5;;
33912;SDS011;20200;52.084;5.224;2022-12-18T09:27:25;46.2;;;33.6;;
33912;SDS011;20200;52.084;5.224;2022-12-18T09:29:01;47.5;;;33.71;;
33912;SDS011;20200;52.084;5.224;2022-12-18T09:30:38;49.7;;;36.1;;
33912;SDS011;20200;52.084;5.224;2022-12-18T09:32:16;47.5;;;35.9;;
33912;SDS011;20200;52.084;5.224;2022-12-18T09:35:30;45.9;;;33.71;;
33912;SDS011;20200;52.084;5.224;2022-12-18T09:37:07;46.4;;;35.0;;
33912;SDS011;20200;52.084;5.224;2022-12-18T09:38:43;44.5;;;33.1;;
33912;SDS011;20200;52.084;5.224;2022-12-18T09:42:01;43.5;;;32.5;;
33912;SDS011;20200;52.084;5.224;2022-12-18T09:43:40;47.5;;;35.0;;
33912;SDS011;20200;52.084;5.224;2022-12-18T09:45:21;49.3;;;35.1;;
33912;SDS011;20200;52.084;5.224;2022-12-18T09:47:01;46.9;;;34.6;;
33912;SDS011;20200;52.084;5.224;2022-12-18T09:50:27;44.4;;;33.21;;
33912;SDS011;20200;52.084;5.224;2022-12-18T09:52:09;47.0;;;34.21;;
33912;SDS011;20200;52.084;5.224;2022-12-18T09:53:52;45.7;;;33.5;;
33912;SDS011;20200;52.084;5.224;2022-12-18T09:55:33;46.7;;;33.71;;
33912;SDS011;20200;52.084;5.224;2022-12-18T09:58:55;44.3;;;33.1;;
33912;SDS011;20200;52.084;5.224;2022-12-18T10:00:34;46.9;;;33.0;;
33912;SDS011;20200;52.084;5.224;2022-12-18T10:02:12;44.3;;;32.0;;
33912;SDS011;20200;52.084;5.224;2022-12-18T10:03:52;45.6;;;33.1;;
33912;SDS011;20200;52.084;5.224;2022-12-18T10:07:24;45.7;;;33.5;;
33912;SDS011;20200;52.084;5.224;2022-12-18T10:09:11;43.7;;;32.21;;
33912;SDS011;20200;52.084;5.224;2022-12-18T10:10:57;41.8;;;32.21;;
33912;SDS011;20200;52.084;5.224;2022-12-18T10:12:45;44.9;;;32.9;;
33912;SDS011;20200;52.084;5.224;2022-12-18T10:14:34;43.4;;;32.6;;
33912;SDS011;20200;52.084;5.224;2022-12-18T10:16:17;45.5;;;32.3;;
33912;SDS011;20200;52.084;5.224;2022-12-18T10:19:58;44.5;;;32.4;;
33912;SDS011;20200;52.084;5.224;2022-12-18T10:21:39;43.1;;;30.8;;
33912;SDS011;20200;52.084;5.224;2022-12-18T10:23:25;40.71;;;30.8;;
33912;SDS011;20200;52.084;5.224;2022-12-18T10:25:14;42.2;;;31.3;;
33912;SDS011;20200;52.084;5.224;2022-12-18T10:26:56;53.0;;;30.2;;
33912;SDS011;20200;52.084;5.224;2022-12-18T10:28:45;43.8;;;31.0;;
33912;SDS011;20200;52.084;5.224;2022-12-18T10:32:01;43.4;;;30.2;;
33912;SDS011;20200;52.084;5.224;2022-12-18T10:33:38;368.8;;;52.1;;
33912;SDS011;20200;52.084;5.224;2022-12-18T10:35:15;41.7;;;28.9;;
33912;SDS011;20200;52.084;5.224;2022-12-18T10:38:32;41.8;;;30.3;;
33912;SDS011;20200;52.084;5.224;2022-12-18T10:40:10;42.2;;;30.6;;
33912;SDS011;20200;52.084;5.224;2022-12-18T10:41:49;41.6;;;29.9;;
33912;SDS011;20200;52.084;5.224;2022-12-18T10:43:25;44.5;;;30.6;;
33912;SDS011;20200;52.084;5.224;2022-12-18T10:46:50;40.4;;;28.3;;
33912;SDS011;20200;52.084;5.224;2022-12-18T10:48:30;42.0;;;29.9;;
33912;SDS011;20200;52.084;5.224;2022-12-18T10:50:11;43.6;;;29.5;;
33912;SDS011;20200;52.084;5.224;2022-12-18T10:52:04;41.9;;;29.6;;
33912;SDS011;20200;52.084;5.224;2022-12-18T10:55:31;38.6;;;28.4;;
33912;SDS011;20200;52.084;5.224;2022-12-18T10:57:20;37.9;;;27.7;;
33912;SDS011;20200;52.084;5.224;2022-12-18T10:59:07;39.31;;;28.4;;
33912;SDS011;20200;52.084;5.224;2022-12-18T11:00:47;38.71;;;28.8;;
33912;SDS011;20200;52.084;5.224;2022-12-18T11:02:39;37.9;;;28.2;;
33912;SDS011;20200;52.084;5.224;2022-12-18T11:04:16;38.4;;;28.6;;
33912;SDS011;20200;52.084;5.224;2022-12-18T11:07:46;38.6;;;27.9;;
33912;SDS011;20200;52.084;5.224;2022-12-18T11:09:24;36.5;;;26.3;;
33912;SDS011;20200;52.084;5.224;2022-12-18T11:11:02;38.5;;;28.1;;
33912;SDS011;20200;52.084;5.224;2022-12-18T11:12:43;36.81;;;27.9;;
33912;SDS011;20200;52.084;5.224;2022-12-18T11:16:00;39.0;;;27.5;;
33912;SDS011;20200;52.084;5.224;2022-12-18T11:17:36;39.0;;;27.5;;
33912;SDS011;20200;52.084;5.224;2022-12-18T11:19:17;36.4;;;25.9;;
33912;SDS011;20200;52.084;5.224;2022-12-18T11:21:00;37.21;;;27.4;;
33912;SDS011;20200;52.084;5.224;2022-12-18T11:24:33;37.21;;;27.0;;
33912;SDS011;20200;52.084;5.224;2022-12-18T11:26:12;37.21;;;26.6;;
33912;SDS011;20200;52.084;5.224;2022-12-18T11:27:50;37.31;;;26.6;;
33912;SDS011;20200;52.084;5.224;2022-12-18T11:29:34;40.31;;;27.2;;
33912;SDS011;20200;52.084;5.224;2022-12-18T11:33:02;35.9;;;25.7;;
33912;SDS011;20200;52.084;5.224;2022-12-18T11:34:42;36.71;;;26.7;;
33912;SDS011;20200;52.084;5.224;2022-12-18T11:36:23;34.1;;;25.0;;
33912;SDS011;20200;52.084;5.224;2022-12-18T11:38:02;36.5;;;25.9;;
33912;SDS011;20200;52.084;5.224;2022-12-18T11:39:49;37.0;;;26.5;;
33912;SDS011;20200;52.084;5.224;2022-12-18T11:43:17;36.1;;;26.0;;
33912;SDS011;20200;52.084;5.224;2022-12-18T11:45:03;36.4;;;26.2;;
33912;SDS011;20200;52.084;5.224;2022-12-18T11:46:58;34.81;;;25.3;;
33912;SDS011;20200;52.084;5.224;2022-12-18T11:48:39;34.5;;;25.4;;
33912;SDS011;20200;52.084;5.224;2022-12-18T11:50:23;33.8;;;25.4;;
33912;SDS011;20200;52.084;5.224;2022-12-18T11:53:51;35.9;;;25.5;;
33912;SDS011;20200;52.084;5.224;2022-12-18T11:55:28;35.9;;;26.2;;
33912;SDS011;20200;52.084;5.224;2022-12-18T11:57:26;35.9;;;25.5;;
33912;SDS011;20200;52.084;5.224;2022-12-18T11:59:13;36.31;;;26.7;;
33912;SDS011;20200;52.084;5.224;2022-12-18T12:01:01;34.9;;;25.5;;
33912;SDS011;20200;52.084;5.224;2022-12-18T12:06:36;36.31;;;26.1;;
33912;SDS011;20200;52.084;5.224;2022-12-18T12:08:24;34.5;;;25.3;;
33912;SDS011;20200;52.084;5.224;2022-12-18T12:10:16;36.0;;;26.2;;
33912;SDS011;20200;52.084;5.224;2022-12-18T12:12:10;36.0;;;26.2;;
33912;SDS011;20200;52.084;5.224;2022-12-18T12:14:07;35.5;;;26.2;;
33912;SDS011;20200;52.084;5.224;2022-12-18T12:16:11;35.1;;;25.6;;
33912;SDS011;20200;52.084;5.224;2022-12-18T12:17:54;34.4;;;25.5;;
33912;SDS011;20200;52.084;5.224;2022-12-18T12:19:43;37.31;;;26.7;;
33912;SDS011;20200;52.084;5.224;2022-12-18T12:23:17;36.81;;;25.6;;
33912;SDS011;20200;52.084;5.224;2022-12-18T12:25:14;36.9;;;26.7;;
33912;SDS011;20200;52.084;5.224;2022-12-18T12:27:00;36.9;;;25.5;;
33912;SDS011;20200;52.084;5.224;2022-12-18T12:28:50;35.4;;;25.8;;
33912;SDS011;20200;52.084;5.224;2022-12-18T12:30:44;35.81;;;26.3;;